Time;durP1;ratioP1;P1;durP2;ratioP2;P2;SDS_P1;SDS_P2;PMS_P1;PMS_P2;Temp;Humidity;BMP_temperature;BMP_pressure;BME280_temperature;BME280_humidity;BME280_pressure;Samples;Min_cycle;Max_cycle;Signal;HPM_P1;HPM_P2
2022/08/21 00:01:47;;;;;;;10.10;5.35;;;17.60;99.90;;;;;;4988946;28;20030;-63
2022/08/21 00:04:13;;;;;;;12.50;6.10;;;17.60;99.90;;;;;;4986920;28;20022;-64
2022/08/21 00:06:39;;;;;;;9.77;5.20;;;17.50;99.90;;;;;;4987088;28;20045;-63
2022/08/21 00:09:07;;;;;;;13.57;5.22;;;17.50;99.90;;;;;;4979361;28;20092;-64
2022/08/21 00:11:34;;;;;;;10.93;5.40;;;17.50;99.90;;;;;;4987304;28;20819;-64
2022/08/21 00:14:00;;;;;;;8.20;5.28;;;17.50;99.90;;;;;;4989749;28;20084;-63
2022/08/21 00:16:26;;;;;;;8.90;5.25;;;17.40;99.90;;;;;;4987878;28;20125;-64
2022/08/21 00:18:52;;;;;;;9.88;5.18;;;17.30;99.90;;;;;;4986379;28;20117;-63
2022/08/21 00:21:17;;;;;;;10.95;5.60;;;17.20;99.90;;;;;;4986598;28;20050;-63
2022/08/21 00:23:43;;;;;;;11.32;5.30;;;17.20;99.90;;;;;;4995672;28;20381;-64
2022/08/21 00:26:09;;;;;;;10.60;5.22;;;17.20;99.90;;;;;;4984892;28;20023;-63
2022/08/21 00:28:35;;;;;;;11.60;5.43;;;17.10;99.90;;;;;;4987026;28;20066;-63
2022/08/21 00:31:03;;;;;;;10.80;5.07;;;17.10;99.90;;;;;;4991874;28;20038;-62
2022/08/21 00:33:29;;;;;;;6.90;4.85;;;17.10;99.90;;;;;;4985565;28;20046;-64
2022/08/21 00:35:55;;;;;;;9.15;5.15;;;17.10;99.90;;;;;;4981082;28;20027;-64
2022/08/21 00:38:20;;;;;;;7.38;4.95;;;17.10;99.90;;;;;;4990409;28;20034;-63
2022/08/21 00:40:53;;;;;;;9.45;4.88;;;17.00;99.90;;;;;;4985553;28;20031;-63
2022/08/21 00:43:27;;;;;;;8.73;5.10;;;17.10;99.90;;;;;;4995130;28;20161;-63
2022/08/21 00:45:54;;;;;;;6.38;4.68;;;17.10;99.90;;;;;;4985580;28;20037;-63
2022/08/21 00:48:20;;;;;;;9.13;5.07;;;17.10;99.90;;;;;;4985546;28;20417;-63
2022/08/21 00:51:08;;;;;;;12.52;5.45;;;17.00;99.90;;;;;;4992391;28;20433;-63
2022/08/21 00:53:37;;;;;;;11.05;5.10;;;17.00;99.90;;;;;;4982013;28;20022;-62
2022/08/21 00:56:06;;;;;;;10.68;5.22;;;17.10;99.90;;;;;;4987297;28;20121;-63
2022/08/21 00:58:35;;;;;;;10.38;5.10;;;17.00;99.90;;;;;;4985940;28;20629;-63
2022/08/21 01:01:03;;;;;;;7.25;4.40;;;16.80;99.90;;;;;;4989854;28;20575;-64
2022/08/21 01:03:28;;;;;;;9.57;4.97;;;16.80;99.90;;;;;;4977156;28;20647;-63
2022/08/21 01:05:55;;;;;;;7.97;5.10;;;16.70;99.90;;;;;;4977785;28;20031;-63
2022/08/21 01:08:21;;;;;;;8.00;5.30;;;16.70;99.90;;;;;;4984103;28;20483;-63
2022/08/21 01:10:47;;;;;;;9.90;4.97;;;16.80;99.90;;;;;;4987039;28;20418;-63
2022/08/21 01:13:16;;;;;;;6.90;5.10;;;16.80;99.90;;;;;;4987323;28;20069;-64
2022/08/21 01:15:46;;;;;;;11.60;5.63;;;16.80;99.90;;;;;;4986214;28;20117;-62
2022/08/21 01:18:12;;;;;;;9.23;5.13;;;16.70;99.90;;;;;;4994355;28;20075;-63
2022/08/21 01:21:10;;;;;;;6.82;5.07;;;16.50;99.90;;;;;;4985967;28;20041;-63
2022/08/21 01:23:38;;;;;;;11.80;5.65;;;16.60;99.90;;;;;;4986204;28;20042;-63
2022/08/21 01:26:05;;;;;;;6.35;4.65;;;16.60;99.90;;;;;;4983684;28;20027;-64
2022/08/21 01:28:33;;;;;;;9.80;4.75;;;16.70;99.90;;;;;;4982186;28;20557;-62
2022/08/21 01:31:01;;;;;;;11.32;4.57;;;16.60;99.90;;;;;;4982568;28;20038;-62
2022/08/21 01:33:27;;;;;;;10.18;4.88;;;16.60;99.90;;;;;;4985776;28;20130;-63
2022/08/21 01:35:52;;;;;;;9.07;4.70;;;16.60;99.90;;;;;;4986049;28;20371;-62
2022/08/21 01:38:18;;;;;;;8.27;4.75;;;16.50;99.90;;;;;;4989426;28;20018;-63
2022/08/21 01:40:44;;;;;;;8.90;4.70;;;16.50;99.90;;;;;;4985580;28;20041;-62
2022/08/21 01:43:10;;;;;;;10.02;5.07;;;16.40;99.90;;;;;;4986148;28;20034;-62
2022/08/21 01:45:36;;;;;;;8.60;5.15;;;16.30;99.90;;;;;;4987582;28;20022;-63
2022/08/21 01:48:02;;;;;;;9.98;5.40;;;16.30;99.90;;;;;;4984638;28;20080;-63
2022/08/21 01:50:28;;;;;;;8.15;4.75;;;16.10;99.90;;;;;;4982501;28;20548;-62
2022/08/21 01:52:54;;;;;;;6.40;4.47;;;16.40;99.90;;;;;;4989995;28;20069;-63
2022/08/21 01:55:21;;;;;;;8.27;4.70;;;16.30;99.90;;;;;;4987050;28;20074;-63
2022/08/21 01:57:47;;;;;;;9.00;5.20;;;16.30;99.90;;;;;;4984999;28;20030;-62
2022/08/21 02:00:16;;;;;;;7.70;4.93;;;16.40;99.90;;;;;;4989230;28;20040;-62
2022/08/21 02:02:42;;;;;;;8.02;5.22;;;16.40;99.90;;;;;;4981747;28;20027;-63
2022/08/21 02:05:12;;;;;;;9.82;5.55;;;16.40;99.90;;;;;;4978254;28;20019;-62
2022/08/21 02:07:40;;;;;;;8.95;5.05;;;16.30;99.90;;;;;;4981538;28;20474;-63
2022/08/21 02:10:08;;;;;;;7.18;5.10;;;16.40;99.90;;;;;;4982289;28;20734;-63
2022/08/21 02:12:34;;;;;;;11.43;5.32;;;16.30;99.90;;;;;;4983843;28;20058;-62
2022/08/21 02:15:00;;;;;;;9.10;5.03;;;16.30;99.90;;;;;;4985914;28;20046;-63
2022/08/21 02:17:26;;;;;;;8.75;4.80;;;16.30;99.90;;;;;;4985481;28;20069;-62
2022/08/21 02:19:52;;;;;;;8.77;5.55;;;16.20;99.90;;;;;;4985160;28;20041;-63
2022/08/21 02:22:17;;;;;;;6.63;5.10;;;16.10;99.90;;;;;;4986558;28;20023;-62
2022/08/21 02:24:43;;;;;;;8.55;5.03;;;16.10;99.90;;;;;;4980761;28;20034;-63
2022/08/21 02:27:09;;;;;;;7.57;5.20;;;16.10;99.90;;;;;;4990892;28;20019;-62
2022/08/21 02:29:34;;;;;;;8.77;4.78;;;16.00;99.90;;;;;;4987014;28;20081;-62
2022/08/21 02:32:00;;;;;;;6.38;4.43;;;16.00;99.90;;;;;;4990026;28;20117;-62
2022/08/21 02:34:26;;;;;;;8.60;5.22;;;16.00;99.90;;;;;;4983503;28;20042;-61
2022/08/21 02:36:51;;;;;;;9.32;4.90;;;15.90;99.90;;;;;;4988021;28;20077;-62
2022/08/21 02:39:17;;;;;;;6.63;4.90;;;15.90;99.90;;;;;;4987686;28;20450;-62
2022/08/21 02:41:43;;;;;;;10.63;5.15;;;15.90;99.90;;;;;;4986297;28;20042;-62
2022/08/21 02:44:08;;;;;;;10.45;5.05;;;15.90;99.90;;;;;;4988955;28;20227;-63
2022/08/21 02:46:34;;;;;;;10.10;5.45;;;15.90;99.90;;;;;;4983477;28;20057;-62
2022/08/21 02:48:59;;;;;;;9.18;4.72;;;15.90;99.90;;;;;;4990535;28;20030;-62
2022/08/21 02:51:25;;;;;;;7.32;4.85;;;15.80;99.90;;;;;;4986934;28;20026;-61
2022/08/21 02:53:51;;;;;;;7.07;4.70;;;15.80;99.90;;;;;;4985746;28;20388;-63
2022/08/21 02:56:18;;;;;;;8.52;5.03;;;15.80;99.90;;;;;;4986585;28;20026;-63
2022/08/21 02:58:49;;;;;;;6.57;4.97;;;15.90;99.90;;;;;;4989766;28;20036;-63
2022/08/21 03:01:15;;;;;;;11.13;5.28;;;15.80;99.90;;;;;;4986165;28;20504;-62
2022/08/21 03:03:43;;;;;;;9.05;5.00;;;15.80;99.90;;;;;;4983499;28;20026;-62
2022/08/21 03:06:13;;;;;;;6.55;4.90;;;15.70;99.90;;;;;;4979586;28;20031;-62
2022/08/21 03:08:38;;;;;;;9.60;5.00;;;15.80;99.90;;;;;;4982887;28;20030;-63
2022/08/21 03:11:05;;;;;;;7.50;4.35;;;15.80;99.90;;;;;;4986665;28;20072;-61
2022/08/21 03:13:31;;;;;;;9.10;4.93;;;15.70;99.90;;;;;;4993455;28;20353;-63
2022/08/21 03:15:57;;;;;;;8.48;4.80;;;15.70;99.90;;;;;;4986626;28;20521;-62
2022/08/21 03:18:23;;;;;;;7.75;5.05;;;15.60;99.90;;;;;;4987463;28;20113;-63
2022/08/21 03:20:48;;;;;;;7.97;4.80;;;15.60;99.90;;;;;;4988986;28;20022;-61
2022/08/21 03:23:17;;;;;;;8.98;4.80;;;15.60;99.90;;;;;;4988210;28;20099;-62
2022/08/21 03:25:43;;;;;;;9.30;5.40;;;15.70;99.90;;;;;;4985406;28;20458;-62
2022/08/21 03:28:13;;;;;;;9.35;5.47;;;15.60;99.90;;;;;;4989769;28;20125;-62
2022/08/21 03:30:45;;;;;;;8.70;5.68;;;15.40;99.90;;;;;;5004446;28;20026;-62
2022/08/21 03:33:10;;;;;;;8.80;5.55;;;15.50;99.90;;;;;;4986208;28;20037;-62
2022/08/21 03:35:36;;;;;;;10.00;6.10;;;15.50;99.90;;;;;;4985434;28;20030;-62
2022/08/21 03:38:02;;;;;;;11.55;5.95;;;15.60;99.90;;;;;;4985893;28;20470;-62
2022/08/21 03:40:28;;;;;;;10.00;6.05;;;15.50;99.90;;;;;;4987136;28;20034;-63
2022/08/21 03:42:54;;;;;;;9.27;6.00;;;15.40;99.90;;;;;;4987273;28;20145;-62
2022/08/21 03:45:20;;;;;;;10.52;5.43;;;15.40;99.90;;;;;;4988462;28;20514;-61
2022/08/21 03:48:01;;;;;;;7.00;5.35;;;15.50;99.90;;;;;;4986470;28;20022;-61
2022/08/21 03:50:30;;;;;;;11.77;5.75;;;15.40;99.90;;;;;;4979289;28;20101;-63
2022/08/21 03:52:57;;;;;;;9.68;5.90;;;15.40;99.90;;;;;;4986841;28;20023;-62
2022/08/21 03:55:23;;;;;;;8.43;6.30;;;15.30;99.90;;;;;;4993029;28;20023;-62
2022/08/21 03:57:48;;;;;;;8.73;6.07;;;15.40;99.90;;;;;;4985850;28;20057;-63
2022/08/21 04:00:15;;;;;;;9.13;6.13;;;15.30;99.90;;;;;;4981881;28;20058;-61
2022/08/21 04:02:43;;;;;;;6.80;5.70;;;15.30;99.90;;;;;;4984661;28;20092;-61
2022/08/21 04:05:11;;;;;;;8.50;6.22;;;15.40;99.90;;;;;;4977103;28;20062;-62
2022/08/21 04:07:36;;;;;;;8.00;6.00;;;15.30;99.90;;;;;;4986490;28;20019;-63
2022/08/21 04:10:05;;;;;;;10.23;6.57;;;15.30;99.90;;;;;;4982545;28;20088;-62
2022/08/21 04:12:31;;;;;;;9.20;6.45;;;15.40;99.90;;;;;;4992154;28;20113;-63
2022/08/21 04:14:57;;;;;;;8.25;5.82;;;15.30;99.90;;;;;;4987127;28;20165;-62
2022/08/21 04:17:23;;;;;;;9.23;6.22;;;15.30;99.90;;;;;;4986014;28;20062;-62
2022/08/21 04:19:49;;;;;;;8.65;6.50;;;15.30;99.90;;;;;;4990461;28;21024;-61
2022/08/21 04:22:15;;;;;;;12.38;6.10;;;15.30;99.90;;;;;;4989954;28;20134;-62
2022/08/21 04:24:41;;;;;;;9.88;5.93;;;15.20;99.90;;;;;;4987479;28;20034;-63
2022/08/21 04:27:07;;;;;;;9.55;6.22;;;15.30;99.90;;;;;;4989718;28;20053;-63
2022/08/21 04:29:32;;;;;;;8.15;6.25;;;15.30;99.90;;;;;;4984373;28;21197;-63
2022/08/21 04:31:58;;;;;;;7.53;6.40;;;15.20;99.90;;;;;;4988857;28;20041;-61
2022/08/21 04:34:23;;;;;;;10.65;7.82;;;15.20;99.90;;;;;;4984988;28;20081;-63
2022/08/21 04:36:49;;;;;;;10.73;7.60;;;15.20;99.90;;;;;;4986333;28;20080;-63
2022/08/21 04:39:14;;;;;;;10.38;8.20;;;15.20;99.90;;;;;;4989246;28;20113;-61
2022/08/21 04:41:41;;;;;;;12.98;8.85;;;15.20;99.90;;;;;;4989216;28;20073;-62
2022/08/21 04:44:08;;;;;;;12.00;8.63;;;15.30;99.90;;;;;;4985568;28;20048;-63
2022/08/21 04:46:34;;;;;;;13.40;8.60;;;15.30;99.90;;;;;;4987186;28;20544;-63
2022/08/21 04:48:59;;;;;;;14.25;9.30;;;15.30;99.90;;;;;;4982048;28;20026;-61
2022/08/21 04:51:33;;;;;;;13.52;8.98;;;15.20;99.90;;;;;;4983013;28;20121;-61
2022/08/21 04:54:06;;;;;;;16.45;9.23;;;15.30;99.90;;;;;;4980176;28;20018;-62
2022/08/21 04:56:38;;;;;;;12.32;9.90;;;15.40;99.90;;;;;;4986815;28;20065;-62
2022/08/21 04:59:10;;;;;;;16.80;10.57;;;15.30;99.90;;;;;;4985390;28;20045;-63
2022/08/21 05:01:37;;;;;;;18.05;10.02;;;15.30;99.90;;;;;;4984036;28;20030;-62
2022/08/21 05:04:05;;;;;;;12.70;10.75;;;15.20;99.90;;;;;;4989206;28;20018;-62
2022/08/21 05:06:34;;;;;;;13.80;10.85;;;15.30;99.90;;;;;;4977807;28;20470;-62
2022/08/21 05:09:01;;;;;;;13.27;10.90;;;15.30;99.90;;;;;;4981791;28;20038;-62
2022/08/21 05:11:27;;;;;;;13.95;11.18;;;15.30;99.90;;;;;;4990313;28;20428;-63
2022/08/21 05:13:53;;;;;;;12.23;10.90;;;15.40;99.90;;;;;;4988267;28;20053;-62
2022/08/21 05:16:18;;;;;;;18.45;11.95;;;15.30;99.90;;;;;;4982058;28;20069;-62
2022/08/21 05:18:44;;;;;;;14.02;10.85;;;15.30;99.90;;;;;;4983213;28;20042;-62
2022/08/21 05:21:10;;;;;;;13.75;11.25;;;15.40;99.90;;;;;;4984739;28;20030;-62
2022/08/21 05:23:36;;;;;;;16.13;11.43;;;15.30;99.90;;;;;;4980869;28;20015;-62
2022/08/21 05:26:03;;;;;;;13.25;10.60;;;15.30;99.90;;;;;;4990387;28;20036;-62
2022/08/21 05:28:29;;;;;;;13.82;9.88;;;15.40;99.90;;;;;;4983243;28;20101;-62
2022/08/21 05:30:54;;;;;;;16.17;11.07;;;15.40;99.90;;;;;;4986144;28;20478;-63
2022/08/21 05:33:20;;;;;;;14.52;10.20;;;15.40;99.90;;;;;;4982182;28;20097;-61
2022/08/21 05:35:50;;;;;;;14.23;10.20;;;15.40;99.90;;;;;;4981436;28;20065;-62
2022/08/21 05:38:16;;;;;;;14.45;10.02;;;15.50;99.90;;;;;;4981501;28;20037;-63
2022/08/21 05:40:42;;;;;;;19.52;10.77;;;15.60;99.90;;;;;;4986131;28;20038;-60
2022/08/21 05:43:08;;;;;;;13.20;10.00;;;15.60;99.90;;;;;;4981641;28;20126;-62
2022/08/21 05:45:34;;;;;;;13.75;10.13;;;15.60;99.90;;;;;;4993115;28;20513;-62
2022/08/21 05:48:20;;;;;;;16.77;10.00;;;15.50;99.90;;;;;;4985216;28;20030;-62
2022/08/21 05:50:46;;;;;;;14.80;9.93;;;15.70;99.90;;;;;;4987299;28;20439;-62
2022/08/21 05:53:14;;;;;;;15.50;9.07;;;15.80;99.90;;;;;;4985116;28;20034;-62
2022/08/21 05:55:41;;;;;;;17.33;9.80;;;16.00;99.90;;;;;;4985773;28;20050;-62
2022/08/21 05:58:07;;;;;;;14.68;9.57;;;16.20;99.90;;;;;;4977559;28;20026;-63
2022/08/21 06:00:33;;;;;;;14.57;8.20;;;16.20;99.90;;;;;;4985104;28;20704;-63
2022/08/21 06:02:59;;;;;;;11.52;7.40;;;16.10;99.90;;;;;;4985920;28;20109;-62
2022/08/21 06:05:26;;;;;;;13.43;7.38;;;16.20;99.90;;;;;;4984963;28;20099;-62
2022/08/21 06:07:52;;;;;;;16.50;7.55;;;16.30;99.90;;;;;;4982178;28;20577;-61
2022/08/21 06:10:17;;;;;;;12.07;7.03;;;16.40;99.90;;;;;;4986796;28;20022;-62
2022/08/21 06:12:43;;;;;;;11.57;7.28;;;16.50;99.90;;;;;;4985251;28;20068;-61
2022/08/21 06:15:09;;;;;;;11.35;6.50;;;16.60;99.90;;;;;;4986955;28;20054;-62
2022/08/21 06:17:34;;;;;;;14.60;6.70;;;16.60;99.90;;;;;;4988881;28;20025;-62
2022/08/21 06:20:00;;;;;;;11.75;6.35;;;16.70;99.90;;;;;;4983466;28;20557;-62
2022/08/21 06:22:25;;;;;;;13.55;6.22;;;16.70;99.90;;;;;;4985382;28;20390;-62
2022/08/21 06:24:51;;;;;;;13.48;6.45;;;16.80;99.90;;;;;;4986949;28;20088;-63
2022/08/21 06:27:17;;;;;;;10.60;5.97;;;17.00;99.90;;;;;;4983688;28;20407;-63
2022/08/21 06:29:44;;;;;;;9.98;5.75;;;17.00;99.90;;;;;;4983521;28;20028;-63
2022/08/21 06:32:12;;;;;;;13.27;6.07;;;17.00;99.90;;;;;;4984561;28;20447;-61
2022/08/21 06:34:39;;;;;;;12.10;5.80;;;17.30;99.90;;;;;;4988507;28;20045;-62
2022/08/21 06:37:05;;;;;;;11.73;6.40;;;17.30;99.90;;;;;;4986285;28;20038;-63
2022/08/21 06:39:31;;;;;;;14.93;5.70;;;17.60;99.90;;;;;;4987138;28;20042;-63
2022/08/21 06:41:57;;;;;;;14.27;6.10;;;17.50;99.90;;;;;;4984633;28;20042;-62
2022/08/21 06:44:23;;;;;;;12.27;5.75;;;17.40;99.90;;;;;;4981591;28;20022;-64
2022/08/21 06:46:48;;;;;;;10.52;5.30;;;17.40;99.90;;;;;;4991254;28;20097;-63
2022/08/21 06:49:14;;;;;;;12.00;5.35;;;17.60;99.90;;;;;;4984801;28;20030;-61
2022/08/21 06:51:40;;;;;;;12.52;5.22;;;17.80;99.90;;;;;;4986555;28;20034;-62
2022/08/21 06:54:06;;;;;;;9.73;4.60;;;17.90;99.90;;;;;;4984464;28;20038;-64
2022/08/21 06:56:33;;;;;;;12.32;5.00;;;18.00;99.90;;;;;;4985554;28;20030;-63
2022/08/21 06:58:58;;;;;;;15.15;4.75;;;18.10;99.90;;;;;;4987053;28;20047;-64
2022/08/21 07:01:26;;;;;;;12.77;5.00;;;18.30;99.90;;;;;;4984760;28;20026;-64
2022/08/21 07:03:52;;;;;;;12.35;4.85;;;18.40;99.90;;;;;;4991217;28;20104;-61
2022/08/21 07:06:18;;;;;;;9.20;4.43;;;18.40;99.90;;;;;;4981745;28;20567;-60
2022/08/21 07:08:43;;;;;;;9.52;4.35;;;18.50;99.90;;;;;;4993196;28;20038;-61
2022/08/21 07:11:14;;;;;;;8.63;3.55;;;18.50;99.90;;;;;;4982658;28;20027;-61
2022/08/21 07:13:40;;;;;;;10.45;3.92;;;18.60;99.90;;;;;;4985902;28;20145;-61
2022/08/21 07:16:06;;;;;;;10.80;3.90;;;18.70;99.90;;;;;;4989211;28;20149;-62
2022/08/21 07:18:31;;;;;;;9.55;3.00;;;18.60;99.90;;;;;;4986856;28;20125;-61
2022/08/21 07:20:57;;;;;;;16.77;3.67;;;18.70;99.90;;;;;;4988144;28;20037;-61
2022/08/21 07:23:28;;;;;;;9.18;3.00;;;18.70;99.90;;;;;;4988535;28;20034;-61
2022/08/21 07:25:54;;;;;;;8.98;2.85;;;18.80;99.90;;;;;;4990077;28;20124;-61
2022/08/21 07:28:20;;;;;;;10.40;2.75;;;18.80;99.90;;;;;;4985831;28;20042;-61
2022/08/21 07:30:50;;;;;;;11.90;2.95;;;18.90;99.90;;;;;;4985958;28;20064;-61
2022/08/21 07:33:16;;;;;;;9.52;3.00;;;19.00;99.90;;;;;;4979624;28;20022;-61
2022/08/21 07:35:41;;;;;;;10.85;3.00;;;19.10;99.90;;;;;;4982944;28;20376;-62
2022/08/21 07:38:07;;;;;;;8.52;2.80;;;19.20;99.90;;;;;;4982991;28;20077;-61
2022/08/21 07:40:33;;;;;;;9.43;2.65;;;19.10;99.90;;;;;;4990820;28;20029;-62
2022/08/21 07:42:58;;;;;;;8.30;2.72;;;19.10;99.90;;;;;;4982137;28;20041;-62
2022/08/21 07:45:24;;;;;;;8.10;2.40;;;19.10;99.90;;;;;;4989066;28;20064;-62
2022/08/21 07:47:49;;;;;;;10.60;3.38;;;19.00;99.90;;;;;;4984765;28;20019;-62
2022/08/21 07:50:15;;;;;;;38.47;25.35;;;19.10;99.90;;;;;;4980349;28;20158;-61
2022/08/21 07:52:42;;;;;;;7.93;2.40;;;19.10;99.90;;;;;;4984352;28;20029;-61
2022/08/21 07:55:10;;;;;;;7.43;2.30;;;19.20;99.90;;;;;;4985609;28;20038;-61
2022/08/21 07:57:36;;;;;;;8.23;2.13;;;19.20;99.90;;;;;;4983739;28;20018;-61
2022/08/21 08:00:04;;;;;;;7.63;2.30;;;19.30;99.90;;;;;;4981446;28;20057;-61
2022/08/21 08:02:30;;;;;;;7.10;1.92;;;19.30;99.90;;;;;;4984426;28;20030;-61
2022/08/21 08:05:00;;;;;;;9.60;2.33;;;19.20;99.90;;;;;;4979913;28;20037;-61
2022/08/21 08:07:26;;;;;;;10.07;2.30;;;19.30;99.90;;;;;;4982813;28;20014;-61
2022/08/21 08:09:51;;;;;;;9.43;2.15;;;19.50;99.90;;;;;;4983428;28;20494;-61
2022/08/21 08:12:18;;;;;;;9.70;2.22;;;19.60;99.90;;;;;;4983153;28;20113;-61
2022/08/21 08:14:44;;;;;;;6.40;1.98;;;19.90;99.90;;;;;;4986938;28;20121;-61
2022/08/21 08:17:10;;;;;;;7.20;1.70;;;19.90;99.90;;;;;;4982814;28;20041;-61
2022/08/21 08:19:35;;;;;;;10.43;1.85;;;19.90;99.90;;;;;;4986814;28;20527;-61
2022/08/21 08:22:01;;;;;;;6.07;1.85;;;20.10;99.90;;;;;;4989037;28;21242;-61
2022/08/21 08:24:27;;;;;;;8.13;1.90;;;20.10;99.90;;;;;;4986633;28;20425;-62
2022/08/21 08:26:53;;;;;;;7.35;1.80;;;20.20;99.90;;;;;;4983881;28;20414;-61
2022/08/21 08:29:20;;;;;;;6.70;1.80;;;20.30;99.90;;;;;;4986083;28;20034;-61
2022/08/21 08:31:46;;;;;;;7.32;2.10;;;20.50;99.90;;;;;;4984380;28;20035;-61
2022/08/21 08:34:11;;;;;;;8.65;2.10;;;20.70;99.90;;;;;;4979482;28;20031;-62
2022/08/21 08:36:37;;;;;;;8.32;1.80;;;20.70;99.90;;;;;;4987923;28;20030;-62
2022/08/21 08:39:04;;;;;;;5.47;1.63;;;20.80;99.90;;;;;;4986477;28;20635;-62
2022/08/21 08:41:30;;;;;;;9.13;1.88;;;20.60;99.90;;;;;;4986305;28;20023;-62
2022/08/21 08:44:02;;;;;;;7.68;1.83;;;20.60;99.90;;;;;;4985602;28;20022;-62
2022/08/21 08:46:46;;;;;;;7.22;1.80;;;20.80;99.90;;;;;;4977345;28;20033;-62
2022/08/21 08:49:20;;;;;;;7.85;2.05;;;20.60;99.90;;;;;;4980464;28;20074;-61
2022/08/21 08:51:59;;;;;;;6.25;1.88;;;20.60;99.90;;;;;;4985393;28;20382;-62
2022/08/21 08:54:41;;;;;;;6.07;1.90;;;20.70;99.90;;;;;;4985532;28;20084;-62
2022/08/21 08:57:10;;;;;;;7.40;1.80;;;20.80;99.90;;;;;;4978386;28;20037;-62
2022/08/21 08:59:41;;;;;;;9.15;2.00;;;20.80;99.90;;;;;;4983232;28;20030;-62
2022/08/21 09:02:11;;;;;;;7.90;1.60;;;20.80;99.90;;;;;;4985040;28;20849;-62
2022/08/21 09:04:36;;;;;;;5.85;1.40;;;20.70;99.90;;;;;;4982570;28;20394;-61
2022/08/21 09:07:14;;;;;;;7.15;2.10;;;20.70;99.90;;;;;;4977864;28;20026;-62
2022/08/21 09:09:59;;;;;;;5.85;1.40;;;20.70;99.90;;;;;;4982557;28;20026;-61
2022/08/21 09:12:55;;;;;;;4.35;1.40;;;20.70;99.90;;;;;;4985360;28;20040;-62
2022/08/21 09:15:43;;;;;;;7.10;1.63;;;20.80;99.90;;;;;;4989476;28;20099;-62
2022/08/21 09:18:34;;;;;;;8.60;1.63;;;20.80;99.90;;;;;;4983969;28;20735;-62
2022/08/21 09:21:17;;;;;;;5.88;1.50;;;20.90;99.90;;;;;;4979958;28;20073;-61
2022/08/21 09:24:01;;;;;;;4.93;1.75;;;21.10;99.90;;;;;;4982726;28;20026;-62
2022/08/21 09:26:42;;;;;;;7.70;1.90;;;21.10;99.90;;;;;;4983252;28;20470;-62
2022/08/21 09:29:11;;;;;;;5.75;1.75;;;21.00;99.90;;;;;;4989922;28;20474;-62
2022/08/21 09:31:37;;;;;;;4.90;1.42;;;21.10;99.90;;;;;;4980876;28;20023;-62
2022/08/21 09:34:13;;;;;;;5.93;1.92;;;21.30;99.90;;;;;;4978661;28;20691;-62
2022/08/21 09:36:46;;;;;;;7.95;2.08;;;21.50;99.90;;;;;;4982433;28;20018;-62
2022/08/21 09:39:13;;;;;;;;;;;21.50;99.90;;;;;;4981269;28;20026;-62
2022/08/21 09:41:40;;;;;;;4.95;1.60;;;21.60;99.90;;;;;;4984896;28;20293;-62
2022/08/21 09:44:07;;;;;;;8.13;1.80;;;21.70;99.90;;;;;;4985870;28;20045;-62
2022/08/21 09:46:33;;;;;;;6.72;2.10;;;21.70;99.90;;;;;;4984300;28;20052;-62
2022/08/21 09:49:01;;;;;;;6.32;1.83;;;21.60;99.90;;;;;;4984972;28;20462;-62
2022/08/21 09:51:30;;;;;;;7.95;1.92;;;21.70;99.90;;;;;;4983101;28;20053;-62
2022/08/21 09:54:17;;;;;;;5.82;1.30;;;22.00;99.90;;;;;;4984649;28;20034;-62
2022/08/21 09:59:45;;;;;;;6.57;1.83;;;22.20;99.90;;;;;;4981259;28;20111;-62
2022/08/21 10:02:22;;;;;;;8.25;1.83;;;22.30;99.90;;;;;;4983849;28;20038;-62
2022/08/21 10:04:57;;;;;;;5.85;1.52;;;22.40;99.90;;;;;;4990338;28;20061;-62
2022/08/21 10:07:25;;;;;;;7.18;1.58;;;22.40;99.90;;;;;;4982451;28;20054;-62
2022/08/21 10:10:04;;;;;;;5.82;1.70;;;22.50;99.90;;;;;;4981654;28;20042;-62
2022/08/21 10:12:46;;;;;;;5.03;1.50;;;22.60;99.90;;;;;;4982711;28;20030;-63
2022/08/21 10:15:21;;;;;;;5.07;1.60;;;22.60;99.90;;;;;;4984332;28;20132;-62
2022/08/21 10:17:53;;;;;;;3.13;1.20;;;22.60;99.90;;;;;;4981469;28;20125;-62
2022/08/21 10:20:24;;;;;;;10.20;4.28;;;22.60;99.90;;;;;;4989792;28;20869;-65
2022/08/21 10:23:02;;;;;;;39.47;31.15;;;22.60;99.90;;;;;;4985410;28;20375;-62
2022/08/21 10:25:56;;;;;;;5.07;1.60;;;22.60;99.90;;;;;;4980125;28;20041;-63
2022/08/21 10:28:37;;;;;;;6.85;1.40;;;22.70;99.90;;;;;;4981821;28;20034;-63
2022/08/21 10:31:41;;;;;;;5.68;1.48;;;22.80;99.90;;;;;;4987705;28;20027;-63
2022/08/21 10:34:20;;;;;;;2.75;0.90;;;22.90;99.90;;;;;;4983796;28;20066;-63
2022/08/21 10:37:01;;;;;;;4.78;1.23;;;23.00;99.90;;;;;;4983317;28;20426;-63
2022/08/21 10:39:42;;;;;;;5.43;1.30;;;23.00;99.90;;;;;;4983764;28;20113;-63
2022/08/21 10:42:35;;;;;;;3.88;1.20;;;23.10;99.90;;;;;;4984593;28;20112;-63
2022/08/21 10:45:08;;;;;;;4.95;1.52;;;23.00;99.90;;;;;;4985400;28;20046;-63
2022/08/21 10:47:56;;;;;;;61.80;50.15;;;23.00;99.90;;;;;;5000902;28;20453;-61
2022/08/21 10:50:44;;;;;;;39.80;34.92;;;23.10;99.90;;;;;;4982587;28;20034;-63
2022/08/21 10:53:47;;;;;;;4.40;1.23;;;23.10;99.90;;;;;;4988928;28;20085;-63
2022/08/21 10:56:32;;;;;;;2.17;1.10;;;22.90;99.90;;;;;;4984819;28;20067;-63
2022/08/21 10:59:12;;;;;;;4.95;1.13;;;23.10;99.90;;;;;;4984000;28;20600;-64
2022/08/21 11:01:52;;;;;;;3.28;1.10;;;23.30;99.90;;;;;;4987613;28;20026;-64
2022/08/21 11:04:30;;;;;;;3.55;1.17;;;23.40;99.90;;;;;;4982156;28;20097;-64
2022/08/21 11:07:39;;;;;;;3.33;1.00;;;23.40;99.90;;;;;;4999072;28;20160;-64
2022/08/21 11:10:43;;;;;;;3.10;1.20;;;23.50;99.90;;;;;;4983655;28;20053;-64
2022/08/21 11:13:13;;;;;;;3.45;1.10;;;23.50;99.90;;;;;;4985997;28;20038;-64
2022/08/21 11:16:06;;;;;;;5.20;1.10;;;23.60;99.90;;;;;;4986120;28;20089;-64
2022/08/21 11:18:36;;;;;;;3.45;1.20;;;23.60;99.90;;;;;;4986083;28;20121;-64
2022/08/21 11:21:19;;;;;;;4.07;1.13;;;23.60;99.90;;;;;;4986688;28;20033;-64
2022/08/21 11:24:03;;;;;;;4.25;1.13;;;23.50;99.90;;;;;;4987188;28;20018;-64
2022/08/21 11:26:39;;;;;;;8.75;1.50;;;23.50;99.90;;;;;;4984936;28;20093;-64
2022/08/21 11:29:30;;;;;;;4.40;1.20;;;23.40;99.90;;;;;;4987673;28;20038;-64
2022/08/21 11:32:19;;;;;;;4.50;1.42;;;23.50;99.90;;;;;;4983217;28;20097;-64
2022/08/21 11:35:22;;;;;;;5.78;1.63;;;23.60;99.90;;;;;;4985863;28;20042;-64
2022/08/21 11:37:56;;;;;;;5.80;1.40;;;23.70;99.90;;;;;;4982905;28;20053;-64
2022/08/21 11:40:45;;;;;;;7.72;1.30;;;23.80;99.90;;;;;;4984957;28;20038;-65
2022/08/21 11:43:23;;;;;;;5.03;1.40;;;23.70;99.90;;;;;;4987085;28;20500;-64
2022/08/21 11:46:14;;;;;;;6.53;1.48;;;23.70;99.90;;;;;;5003243;28;20322;-65
2022/08/21 11:49:17;;;;;;;4.18;1.20;;;23.40;99.90;;;;;;4987660;28;20042;-64
2022/08/21 11:52:04;;;;;;;5.45;1.70;;;23.50;99.90;;;;;;4980898;28;20019;-64
2022/08/21 11:54:43;;;;;;;5.60;1.30;;;23.70;99.90;;;;;;4982505;28;20520;-64
2022/08/21 11:57:21;;;;;;;5.15;1.50;;;23.70;99.90;;;;;;4982886;28;20031;-64
2022/08/21 11:59:49;;;;;;;6.55;1.45;;;23.70;99.90;;;;;;4982056;28;20026;-65
2022/08/21 12:02:19;;;;;;;4.72;1.30;;;23.70;99.90;;;;;;4980848;28;20031;-64
2022/08/21 12:04:55;;;;;;;6.90;1.65;;;23.70;99.90;;;;;;4981297;28;20030;-65
2022/08/21 12:07:40;;;;;;;7.88;1.40;;;23.80;99.90;;;;;;4981407;28;20026;-64
2022/08/21 12:10:20;;;;;;;2.85;1.00;;;23.90;99.90;;;;;;4983097;28;20027;-64
2022/08/21 12:12:46;;;;;;;3.92;1.25;;;23.90;99.90;;;;;;4978432;28;20089;-65
2022/08/21 12:15:24;;;;;;;8.48;1.10;;;23.90;99.90;;;;;;4976606;28;20089;-65
2022/08/21 12:18:04;;;;;;;5.40;1.10;;;23.90;99.90;;;;;;4980297;28;20030;-64
2022/08/21 12:20:29;;;;;;;4.35;1.23;;;23.90;99.90;;;;;;4980485;28;20474;-64
2022/08/21 12:23:09;;;;;;;3.50;1.02;;;24.00;99.90;;;;;;4998448;28;20034;-65
2022/08/21 12:25:44;;;;;;;4.05;1.08;;;23.70;99.90;;;;;;4980247;28;20031;-64
2022/08/21 12:28:13;;;;;;;5.65;1.25;;;23.80;99.90;;;;;;4981496;28;20583;-64
2022/08/21 12:30:49;;;;;;;3.35;1.27;;;23.90;99.90;;;;;;4986260;28;20023;-64
2022/08/21 12:33:35;;;;;;;5.18;1.10;;;23.90;99.90;;;;;;4982273;28;20164;-64
2022/08/21 12:36:20;;;;;;;6.43;1.52;;;23.80;99.90;;;;;;4978419;28;20054;-64
2022/08/21 12:38:55;;;;;;;6.55;1.20;;;23.80;99.90;;;;;;4984770;28;20042;-64
2022/08/21 12:41:27;;;;;;;3.50;1.15;;;23.90;99.90;;;;;;4984364;28;20421;-65
2022/08/21 12:44:05;;;;;;;7.32;1.50;;;23.90;99.90;;;;;;4985393;28;20026;-65
2022/08/21 12:46:45;;;;;;;4.35;1.27;;;23.90;99.90;;;;;;4984656;28;20026;-65
2022/08/21 12:49:44;;;;;;;6.78;1.20;;;24.00;99.90;;;;;;4983754;28;20640;-65
2022/08/21 12:52:24;;;;;;;7.88;2.40;;;23.90;99.90;;;;;;4981351;28;20049;-65
2022/08/21 12:54:49;;;;;;;4.97;1.50;;;23.90;99.90;;;;;;4981197;28;20034;-65
2022/08/21 12:57:21;;;;;;;5.35;1.42;;;24.00;99.90;;;;;;4986191;28;20385;-65
2022/08/21 12:59:54;;;;;;;4.78;1.05;;;24.00;99.90;;;;;;4980959;28;20470;-65
2022/08/21 13:02:24;;;;;;;3.58;1.02;;;24.20;99.90;;;;;;4998303;28;20027;-65
2022/08/21 13:04:51;;;;;;;3.90;1.10;;;24.20;99.90;;;;;;4981251;28;20143;-65